createdAt,value
2019-01-17T00:01:01.295Z,2.73
2019-01-17T00:02:11.412Z,2.78
2019-01-17T00:03:21.541Z,2.78
2019-01-17T00:04:31.673Z,2.79
2019-01-17T00:05:41.780Z,2.78
2019-01-17T00:06:51.631Z,2.79
2019-01-17T00:08:01.742Z,2.81
2019-01-17T00:09:11.837Z,2.7
2019-01-17T00:10:21.935Z,2.77
2019-01-17T00:11:32.038Z,2.81
2019-01-17T00:12:42.152Z,2.79
2019-01-17T00:13:52.268Z,2.84
2019-01-17T00:15:02.385Z,2.82
2019-01-17T00:16:12.501Z,2.78
2019-01-17T00:17:22.621Z,2.82
2019-01-17T00:18:32.375Z,2.81
2019-01-17T00:19:42.488Z,2.84
2019-01-17T00:20:52.234Z,2.82
2019-01-17T00:22:02.332Z,2.85
2019-01-17T00:23:12.439Z,2.79
2019-01-17T00:24:22.560Z,2.88
2019-01-17T00:25:32.439Z,2.84
2019-01-17T00:26:42.541Z,2.87
2019-01-17T00:27:52.646Z,2.82
2019-01-17T00:29:02.749Z,2.94
2019-01-17T00:30:13.895Z,2.94
2019-01-17T00:31:23.993Z,2.89
2019-01-17T00:32:34.094Z,2.94
2019-01-17T00:33:44.219Z,2.88
2019-01-17T00:34:54.343Z,2.88
2019-01-17T00:36:04.440Z,2.96
2019-01-17T00:37:14.541Z,3
2019-01-17T00:38:24.670Z,2.94
2019-01-17T00:39:34.783Z,3.04
2019-01-17T00:40:44.626Z,2.89
2019-01-17T00:41:54.224Z,3.02
2019-01-17T00:43:04.321Z,2.88
2019-01-17T00:44:14.450Z,2.89
2019-01-17T00:45:24.542Z,2.91
2019-01-17T00:46:34.651Z,2.91
2019-01-17T00:47:44.960Z,2.99
2019-01-17T00:48:55.119Z,2.87
2019-01-17T00:50:05.212Z,2.89
2019-01-17T00:51:15.311Z,2.89
2019-01-17T00:52:25.409Z,2.99
2019-01-17T00:53:35.505Z,2.81
2019-01-17T00:54:45.621Z,2.85
2019-01-17T00:55:55.723Z,2.87
2019-01-17T00:57:05.890Z,2.81
2019-01-17T00:58:16.023Z,2.77
2019-01-17T00:59:26.139Z,2.74
2019-01-17T01:00:36.234Z,2.69
2019-01-17T01:01:46.332Z,2.55
2019-01-17T01:02:56.439Z,2.56
2019-01-17T01:04:06.551Z,2.6
2019-01-17T01:05:16.648Z,2.48
2019-01-17T01:06:26.758Z,2.48
2019-01-17T01:07:36.856Z,2.46
2019-01-17T01:08:46.961Z,2.45
2019-01-17T01:09:56.821Z,2.42
2019-01-17T01:11:07.140Z,2.39
2019-01-17T01:12:17.271Z,2.42
2019-01-17T01:13:27.386Z,2.3
2019-01-17T01:14:37.544Z,2.45
2019-01-17T01:15:47.659Z,2.45
2019-01-17T01:16:57.770Z,2.45
2019-01-17T01:18:07.880Z,2.49
2019-01-17T01:19:17.986Z,2.51
2019-01-17T01:20:28.131Z,2.42
2019-01-17T01:21:38.247Z,2.41
2019-01-17T01:22:48.355Z,2.52
2019-01-17T01:23:58.461Z,2.53
2019-01-17T01:25:08.565Z,2.49
2019-01-17T01:26:18.680Z,2.53
2019-01-17T01:27:28.787Z,2.52
2019-01-17T01:28:38.920Z,2.62
2019-01-17T01:29:49.023Z,2.64
2019-01-17T01:30:59.167Z,2.64
2019-01-17T01:32:09.274Z,2.67
2019-01-17T01:33:19.380Z,2.67
2019-01-17T01:34:29.245Z,2.69
2019-01-17T01:35:39.567Z,2.64
2019-01-17T01:36:49.685Z,2.66
2019-01-17T01:37:59.794Z,2.69
2019-01-17T01:39:09.903Z,2.59
2019-01-17T01:40:20.011Z,2.56
2019-01-17T01:41:30.107Z,2.67
2019-01-17T01:42:40.208Z,2.63
2019-01-17T01:43:50.324Z,2.69
2019-01-17T01:45:00.183Z,2.66
2019-01-17T01:46:10.319Z,2.62
2019-01-17T01:47:20.429Z,2.69
2019-01-17T01:48:30.542Z,2.71
2019-01-17T01:49:40.664Z,2.7
2019-01-17T01:50:50.762Z,2.7
2019-01-17T01:52:01.871Z,2.78
2019-01-17T01:53:11.980Z,2.84
2019-01-17T01:54:26.961Z,2.74
2019-01-17T01:55:36.820Z,2.85
2019-01-17T01:56:46.921Z,2.84
2019-01-17T01:57:57.013Z,2.78
2019-01-17T01:59:07.105Z,2.84
2019-01-17T02:00:17.408Z,2.87
2019-01-17T02:01:27.518Z,2.85
2019-01-17T02:02:37.626Z,2.92
2019-01-17T02:03:47.727Z,2.94
2019-01-17T02:04:57.844Z,2.92
2019-01-17T02:06:07.944Z,2.96
2019-01-17T02:07:18.037Z,2.88
2019-01-17T02:08:28.144Z,2.82
2019-01-17T02:09:38.240Z,2.87
2019-01-17T02:10:48.334Z,2.94
2019-01-17T02:11:58.445Z,2.91
2019-01-17T02:13:08.533Z,2.85
2019-01-17T02:14:18.660Z,2.92
2019-01-17T02:15:28.771Z,2.89
2019-01-17T02:16:38.868Z,2.89
2019-01-17T02:17:48.968Z,2.97
2019-01-17T02:18:59.064Z,3.02
2019-01-17T02:20:09.182Z,2.97
2019-01-17T02:21:18.922Z,3.02
2019-01-17T02:22:29.018Z,3.11
2019-01-17T02:23:39.113Z,3.1
2019-01-17T02:24:49.209Z,3.08
2019-01-17T02:25:59.318Z,3.1
2019-01-17T02:27:09.420Z,3.08
2019-01-17T02:28:19.525Z,3.08
2019-01-17T02:29:29.629Z,3.15
2019-01-17T02:30:39.722Z,3.21
2019-01-17T02:31:49.830Z,3.13
2019-01-17T02:32:59.933Z,3.22
2019-01-17T02:34:10.031Z,3.21
2019-01-17T02:35:20.129Z,3.28
2019-01-17T02:36:30.274Z,3.29
2019-01-17T02:37:40.370Z,3.22
2019-01-17T02:38:50.470Z,3.28
2019-01-17T02:40:00.791Z,3.29
2019-01-17T02:41:10.887Z,3.29
2019-01-17T02:42:20.992Z,3.28
2019-01-17T02:43:31.127Z,3.29
2019-01-17T02:44:41.676Z,3.37
2019-01-17T02:45:51.793Z,3.36
2019-01-17T02:47:01.910Z,3.42
2019-01-17T02:48:12.027Z,3.44
2019-01-17T02:49:21.928Z,3.43
2019-01-17T02:50:32.049Z,3.39
2019-01-17T02:51:42.156Z,3.4
2019-01-17T02:52:52.247Z,3.39
2019-01-17T02:54:02.361Z,3.37
2019-01-17T02:55:12.479Z,3.39
2019-01-17T02:56:22.562Z,3.42
2019-01-17T02:57:32.684Z,3.42
2019-01-17T02:58:42.798Z,3.47
2019-01-17T02:59:52.898Z,3.42
2019-01-17T03:01:03.014Z,3.52
2019-01-17T03:02:13.207Z,3.37
2019-01-17T03:03:23.352Z,3.52
2019-01-17T03:04:33.725Z,3.54
2019-01-17T03:05:43.887Z,3.58
2019-01-17T03:06:54.007Z,3.54
2019-01-17T03:08:03.853Z,3.49
2019-01-17T03:09:13.967Z,3.57
2019-01-17T03:10:24.075Z,3.46
2019-01-17T03:11:34.177Z,3.54
2019-01-17T03:12:43.923Z,3.46
2019-01-17T03:13:54.023Z,3.55
2019-01-17T03:15:04.137Z,3.49
2019-01-17T03:16:14.236Z,3.5
2019-01-17T03:17:56.248Z,3.49
2019-01-17T03:19:06.362Z,3.5
2019-01-17T03:20:16.464Z,3.42
2019-01-17T03:21:26.587Z,3.46
2019-01-17T03:22:36.700Z,3.43
2019-01-17T03:23:46.549Z,3.4
2019-01-17T03:24:56.647Z,3.39
2019-01-17T03:26:06.801Z,3.39
2019-01-17T03:27:16.655Z,3.39
2019-01-17T03:28:26.503Z,3.44
2019-01-17T03:29:36.643Z,3.37
2019-01-17T03:30:46.754Z,3.44
2019-01-17T03:31:56.871Z,3.39
2019-01-17T03:33:06.984Z,3.36
2019-01-17T03:34:17.081Z,3.4
2019-01-17T03:35:27.201Z,3.42
2019-01-17T03:36:37.313Z,3.52
2019-01-17T03:37:47.408Z,3.5
2019-01-17T03:38:57.515Z,3.47
2019-01-17T03:40:07.631Z,3.47
2019-01-17T03:41:17.753Z,3.52
2019-01-17T03:42:27.867Z,3.57
2019-01-17T03:43:39.122Z,3.5
2019-01-17T03:44:49.215Z,3.58
2019-01-17T03:45:59.332Z,3.61
2019-01-17T03:47:10.430Z,3.58
2019-01-17T03:48:20.177Z,3.54
2019-01-17T03:49:30.293Z,3.54
2019-01-17T03:50:40.420Z,3.54
2019-01-17T03:51:50.527Z,3.61
2019-01-17T03:53:00.655Z,3.65
2019-01-17T03:54:10.500Z,3.68
2019-01-17T03:55:20.607Z,3.67
2019-01-17T03:56:30.737Z,3.65
2019-01-17T03:57:40.872Z,3.65
2019-01-17T03:58:50.990Z,3.61
2019-01-17T04:00:01.138Z,3.65
2019-01-17T04:01:11.240Z,3.72
2019-01-17T04:02:21.355Z,3.69
2019-01-17T04:03:31.492Z,3.64
2019-01-17T04:04:41.617Z,3.67
2019-01-17T04:05:51.765Z,3.59
2019-01-17T04:07:01.857Z,3.68
2019-01-17T04:08:11.969Z,3.67
2019-01-17T04:09:22.060Z,3.68
2019-01-17T04:10:32.169Z,3.69
2019-01-17T04:11:42.267Z,3.64
2019-01-17T04:12:52.399Z,3.68
2019-01-17T04:14:02.722Z,3.68
2019-01-17T04:15:12.570Z,3.68
2019-01-17T04:16:22.706Z,3.67
2019-01-17T04:17:32.821Z,3.75
2019-01-17T04:18:42.928Z,3.79
2019-01-17T04:19:53.029Z,3.69
2019-01-17T04:21:03.143Z,3.72
2019-01-17T04:22:13.232Z,3.65
2019-01-17T04:23:23.454Z,3.72
2019-01-17T04:24:33.547Z,3.76
2019-01-17T04:25:43.658Z,3.77
2019-01-17T04:26:55.657Z,3.72
2019-01-17T04:28:05.844Z,3.73
2019-01-17T04:29:15.952Z,3.82
2019-01-17T04:30:26.057Z,3.8
2019-01-17T04:31:36.209Z,3.8
2019-01-17T04:32:46.325Z,3.87
2019-01-17T04:33:56.438Z,3.91
2019-01-17T04:35:06.549Z,3.85
2019-01-17T04:36:16.401Z,3.93
2019-01-17T04:37:26.510Z,3.93
2019-01-17T04:38:36.708Z,3.93
2019-01-17T04:39:46.813Z,3.82
2019-01-17T04:40:56.927Z,3.98
2019-01-17T04:42:07.253Z,3.83
2019-01-17T04:43:17.356Z,3.85
2019-01-17T04:44:27.470Z,3.83
2019-01-17T04:45:37.684Z,3.93
2019-01-17T04:46:47.777Z,3.9
2019-01-17T04:47:57.885Z,3.87
2019-01-17T04:49:07.988Z,3.87
2019-01-17T04:50:18.088Z,3.85
2019-01-17T04:51:28.204Z,3.87
2019-01-17T04:52:38.077Z,3.93
2019-01-17T04:53:48.194Z,3.95
2019-01-17T04:55:04.763Z,3.9
2019-01-17T04:56:15.137Z,3.97
2019-01-17T04:57:25.230Z,3.97
2019-01-17T04:58:35.360Z,3.98
2019-01-17T04:59:45.210Z,3.98
2019-01-17T05:00:55.322Z,3.98
2019-01-17T05:02:05.437Z,3.95
2019-01-17T05:03:15.539Z,4.01
2019-01-17T05:04:25.711Z,4.03
2019-01-17T05:05:35.586Z,4
2019-01-17T05:06:45.685Z,4.01
2019-01-17T05:07:55.795Z,4.04
2019-01-17T05:09:05.956Z,4.01
2019-01-17T05:10:16.070Z,4.05
2019-01-17T05:11:26.182Z,3.98
2019-01-17T05:12:36.296Z,4.04
2019-01-17T05:13:46.390Z,3.97
2019-01-17T05:14:56.488Z,4.03
2019-01-17T05:16:06.611Z,3.98
2019-01-17T05:17:16.750Z,4.05
2019-01-17T05:18:26.882Z,4.03
2019-01-17T05:19:36.986Z,3.95
2019-01-17T05:20:46.845Z,4
2019-01-17T05:21:56.940Z,4.09
2019-01-17T05:23:07.054Z,4.05
2019-01-17T05:24:17.239Z,4.03
2019-01-17T05:25:27.357Z,4.12
2019-01-17T05:26:37.503Z,4.04
2019-01-17T05:27:47.673Z,4.03
2019-01-17T05:28:57.781Z,4
2019-01-17T05:30:07.902Z,4.01
2019-01-17T05:31:18.018Z,4.05
2019-01-17T05:32:28.144Z,4.03
2019-01-17T05:33:44.490Z,4.05
2019-01-17T05:34:54.578Z,3.98
2019-01-17T05:36:04.707Z,3.97
2019-01-17T05:37:14.821Z,4.04
2019-01-17T05:38:24.926Z,4.05
2019-01-17T05:39:35.047Z,3.98
2019-01-17T05:40:45.158Z,3.98
2019-01-17T05:41:55.249Z,4.01
2019-01-17T05:43:05.361Z,4.03
2019-01-17T05:44:15.471Z,3.98
2019-01-17T05:45:25.585Z,4.04
2019-01-17T05:46:35.705Z,4.04
2019-01-17T05:47:45.820Z,4.05
2019-01-17T05:48:55.952Z,4.04
2019-01-17T05:50:06.053Z,4.05
2019-01-17T05:51:16.176Z,4
2019-01-17T05:52:25.961Z,3.97
2019-01-17T05:53:35.825Z,4.09
2019-01-17T05:54:45.945Z,4.08
2019-01-17T05:55:56.048Z,4.11
2019-01-17T05:57:06.155Z,4.2
2019-01-17T05:58:16.275Z,4.19
2019-01-17T05:59:26.555Z,4.11
2019-01-17T06:00:36.930Z,4.05
2019-01-17T06:01:47.024Z,4.12
2019-01-17T06:02:57.194Z,4.11
2019-01-17T06:04:07.300Z,4.18
2019-01-17T06:05:17.415Z,4.15
2019-01-17T06:06:32.936Z,4.09
2019-01-17T06:07:43.279Z,4.12
2019-01-17T06:08:53.401Z,4.13
2019-01-17T06:10:03.527Z,4.15
2019-01-17T06:11:13.625Z,4.18
2019-01-17T06:12:23.741Z,4.13
2019-01-17T06:13:33.865Z,4.19
2019-01-17T06:14:44.005Z,4.15
2019-01-17T06:15:54.163Z,4.22
2019-01-17T06:17:04.259Z,4.22
2019-01-17T06:18:14.356Z,4.27
2019-01-17T06:19:24.201Z,4.16
2019-01-17T06:20:34.408Z,4.2
2019-01-17T06:21:44.473Z,4.2
2019-01-17T06:22:54.584Z,4.19
2019-01-17T06:24:04.685Z,4.19
2019-01-17T06:25:14.799Z,4.12
2019-01-17T06:26:24.662Z,4.09
2019-01-17T06:27:34.761Z,4.11
2019-01-17T06:28:44.864Z,4.15
2019-01-17T06:29:54.988Z,4.16
2019-01-17T06:31:05.084Z,4.12
2019-01-17T06:32:14.936Z,4.18
2019-01-17T06:33:25.041Z,4.19
2019-01-17T06:34:35.170Z,4.12
2019-01-17T06:35:45.270Z,4.15
2019-01-17T06:36:55.396Z,4.13
2019-01-17T06:38:05.504Z,4.12
2019-01-17T06:39:15.615Z,4.11
2019-01-17T06:40:25.723Z,4.18
2019-01-17T06:41:35.825Z,4.16
2019-01-17T06:42:45.923Z,4.15
2019-01-17T06:43:56.097Z,4.16
2019-01-17T06:45:06.196Z,4.11
2019-01-17T06:46:16.496Z,4.22
2019-01-17T06:47:26.621Z,4.16
2019-01-17T06:48:36.480Z,4.13
2019-01-17T06:49:47.652Z,4.05
2019-01-17T06:50:57.761Z,4.13
2019-01-17T06:52:07.853Z,4
2019-01-17T06:53:17.954Z,4.01
2019-01-17T06:54:28.056Z,4
2019-01-17T06:55:39.506Z,4
2019-01-17T06:56:49.613Z,4
2019-01-17T06:57:59.382Z,4.03
2019-01-17T06:59:09.486Z,4.03
2019-01-17T07:00:19.585Z,4
2019-01-17T07:01:29.694Z,4
2019-01-17T07:02:39.466Z,3.9
2019-01-17T07:03:49.570Z,3.85
2019-01-17T07:04:59.688Z,3.9
2019-01-17T07:06:09.793Z,3.85
2019-01-17T07:07:19.898Z,3.83
2019-01-17T07:08:30.004Z,3.85
2019-01-17T07:09:40.112Z,3.8
2019-01-17T07:10:50.212Z,3.8
2019-01-17T07:12:00.302Z,3.87
2019-01-17T07:13:10.494Z,3.79
2019-01-17T07:14:20.608Z,3.83
2019-01-17T07:15:30.712Z,3.9
2019-01-17T07:16:40.818Z,3.85
2019-01-17T07:17:50.950Z,3.93
2019-01-17T07:19:00.804Z,3.87
2019-01-17T07:20:10.909Z,3.9
2019-01-17T07:21:21.115Z,3.87
2019-01-17T07:22:31.211Z,3.83
2019-01-17T07:23:41.351Z,3.85
2019-01-17T07:24:51.459Z,3.85
2019-01-17T07:26:01.586Z,3.95
2019-01-17T07:27:11.680Z,3.91
2019-01-17T07:28:21.783Z,3.95
2019-01-17T07:29:31.914Z,3.86
2019-01-17T07:30:42.054Z,3.86
2019-01-17T07:31:51.903Z,3.87
2019-01-17T07:33:02.031Z,3.93
2019-01-17T07:34:12.174Z,3.98
2019-01-17T07:35:22.030Z,3.94
2019-01-17T07:36:33.119Z,3.94
2019-01-17T07:37:43.212Z,3.95
2019-01-17T07:38:53.373Z,3.91
2019-01-17T07:40:03.502Z,3.91
2019-01-17T07:41:13.845Z,3.9
2019-01-17T07:42:23.948Z,3.93
2019-01-17T07:43:34.045Z,3.93
2019-01-17T07:44:44.148Z,3.97
2019-01-17T07:45:54.275Z,3.93
2019-01-17T07:47:04.370Z,3.9
2019-01-17T07:48:14.494Z,3.97
2019-01-17T07:49:24.347Z,3.94
2019-01-17T07:50:33.835Z,4.05
2019-01-17T07:51:43.958Z,4.04
2019-01-17T07:52:54.079Z,3.95
2019-01-17T07:54:04.216Z,3.98
2019-01-17T07:55:14.325Z,3.95
2019-01-17T07:56:24.459Z,3.97
2019-01-17T07:57:34.587Z,4.01
2019-01-17T07:58:45.974Z,3.98
2019-01-17T07:59:56.118Z,3.98
2019-01-17T08:01:06.234Z,3.98
2019-01-17T08:02:22.756Z,3.9
2019-01-17T08:03:32.857Z,3.91
2019-01-17T08:04:42.957Z,3.98
2019-01-17T08:05:53.074Z,3.97
2019-01-17T08:07:03.191Z,4.03
2019-01-17T08:08:13.306Z,4
2019-01-17T08:09:23.415Z,4.01
2019-01-17T08:10:33.528Z,4.04
2019-01-17T08:11:43.816Z,4.01
2019-01-17T08:12:53.945Z,4
2019-01-17T08:14:04.054Z,4.15
2019-01-17T08:15:14.262Z,4.11
2019-01-17T08:16:24.383Z,4.09
2019-01-17T08:17:34.518Z,4.11
2019-01-17T08:18:44.654Z,4.12
2019-01-17T08:19:54.759Z,4.03
2019-01-17T08:21:04.907Z,4.12
2019-01-17T08:22:15.023Z,4.01
2019-01-17T08:23:25.140Z,4.03
2019-01-17T08:24:40.050Z,4.01
2019-01-17T08:25:56.548Z,4.11
2019-01-17T08:27:06.654Z,4.03
2019-01-17T08:28:16.869Z,4.08
2019-01-17T08:29:27.029Z,4.03
2019-01-17T08:30:37.130Z,4.11
2019-01-17T08:31:47.231Z,4.03
2019-01-17T08:32:57.354Z,3.97
2019-01-17T08:34:07.449Z,4.05
2019-01-17T08:35:17.597Z,4.03
2019-01-17T08:36:27.713Z,3.97
2019-01-17T08:37:37.824Z,4.09
2019-01-17T08:38:47.929Z,4.13
2019-01-17T08:39:58.040Z,4.15
2019-01-17T08:41:08.169Z,4.03
2019-01-17T08:42:17.956Z,4.16
2019-01-17T08:43:28.063Z,4.01
2019-01-17T08:44:38.166Z,4.19
2019-01-17T08:45:48.284Z,4.23
2019-01-17T08:46:58.386Z,4.23
2019-01-17T08:48:08.504Z,4.2
2019-01-17T08:49:18.608Z,4.23
2019-01-17T08:50:28.714Z,4.34
2019-01-17T08:51:38.846Z,4.36
2019-01-17T08:52:48.976Z,4.53
2019-01-17T08:53:59.099Z,4.5
2019-01-17T08:55:09.234Z,4.59
2019-01-17T08:56:19.359Z,4.57
2019-01-17T08:57:29.484Z,4.67
2019-01-17T08:58:39.593Z,4.71
2019-01-17T08:59:49.711Z,4.81
2019-01-17T09:00:59.836Z,4.89
2019-01-17T09:02:09.696Z,5.03
2019-01-17T09:03:19.824Z,5.16
2019-01-17T09:04:29.697Z,5.22
2019-01-17T09:05:39.815Z,5.28
2019-01-17T09:06:49.672Z,5.28
2019-01-17T09:07:59.802Z,5.38
2019-01-17T09:09:09.919Z,5.51
2019-01-17T09:10:20.057Z,5.59
2019-01-17T09:11:30.171Z,5.68
2019-01-17T09:12:40.287Z,5.71
2019-01-17T09:13:50.396Z,5.68
2019-01-17T09:15:00.525Z,5.67
2019-01-17T09:16:10.675Z,5.69
2019-01-17T09:17:20.794Z,5.68
2019-01-17T09:18:30.934Z,5.54
2019-01-17T09:19:41.041Z,5.5
2019-01-17T09:20:51.170Z,5.31
2019-01-17T09:22:01.297Z,5.26
2019-01-17T09:23:11.438Z,5.24
2019-01-17T09:24:21.553Z,5.17
2019-01-17T09:25:31.675Z,5.18
2019-01-17T09:26:41.800Z,5.22
2019-01-17T09:27:51.910Z,5.18
2019-01-17T09:29:01.771Z,5.14
2019-01-17T09:30:11.893Z,5.1
2019-01-17T09:31:21.539Z,5.04
2019-01-17T09:32:31.659Z,5.04
2019-01-17T09:33:41.773Z,4.98
2019-01-17T09:34:51.881Z,4.93
2019-01-17T09:36:01.982Z,4.93
2019-01-17T09:37:12.102Z,4.98
2019-01-17T09:38:22.227Z,4.96
2019-01-17T09:39:32.363Z,4.81
2019-01-17T09:40:42.471Z,4.83
2019-01-17T09:41:52.598Z,4.68
2019-01-17T09:43:02.701Z,4.74
2019-01-17T09:44:12.800Z,4.65
2019-01-17T09:45:22.923Z,4.7
2019-01-17T09:46:33.027Z,4.65
2019-01-17T09:47:43.167Z,4.75
2019-01-17T09:48:53.294Z,4.74
2019-01-17T09:50:03.086Z,4.67
2019-01-17T09:51:13.204Z,4.7
2019-01-17T09:52:23.340Z,4.77
2019-01-17T09:53:33.494Z,4.78
2019-01-17T09:54:43.827Z,4.83
2019-01-17T09:55:53.944Z,4.8
2019-01-17T09:57:04.076Z,4.81
2019-01-17T09:58:14.201Z,4.77
2019-01-17T09:59:24.340Z,4.86
2019-01-17T10:00:34.470Z,4.98
2019-01-17T10:01:44.578Z,4.92
2019-01-17T10:02:54.680Z,4.9
2019-01-17T10:04:04.800Z,4.99
2019-01-17T10:05:14.910Z,4.98
2019-01-17T10:06:25.033Z,4.9
2019-01-17T10:07:34.770Z,4.95
2019-01-17T10:08:44.901Z,4.93
2019-01-17T10:09:56.155Z,4.95
2019-01-17T10:11:06.260Z,4.95
2019-01-17T10:12:16.382Z,4.8
2019-01-17T10:13:31.977Z,4.93
2019-01-17T10:14:42.219Z,4.95
2019-01-17T10:15:52.354Z,5.04
2019-01-17T10:17:02.457Z,5.11
2019-01-17T10:18:12.588Z,5.13
2019-01-17T10:19:22.439Z,5.16
2019-01-17T10:20:32.539Z,5.22
2019-01-17T10:21:42.649Z,5.32
2019-01-17T10:22:52.782Z,5.22
2019-01-17T10:24:02.922Z,5.31
2019-01-17T10:25:13.063Z,5.26
2019-01-17T10:26:26.163Z,5.31
2019-01-17T10:27:37.237Z,5.28
2019-01-17T10:28:47.091Z,5.38
2019-01-17T10:29:57.192Z,5.5
2019-01-17T10:31:07.303Z,5.56
2019-01-17T10:32:17.428Z,5.67
2019-01-17T10:33:27.558Z,5.67
2019-01-17T10:34:37.675Z,5.74
2019-01-17T10:35:47.805Z,5.71
2019-01-17T10:36:57.704Z,5.69
2019-01-17T10:38:07.845Z,5.71
2019-01-17T10:39:17.958Z,5.68
2019-01-17T10:40:28.075Z,5.67
2019-01-17T10:41:38.208Z,5.65
2019-01-17T10:42:48.356Z,5.68
2019-01-17T10:43:58.512Z,5.68
2019-01-17T10:45:08.651Z,5.56
2019-01-17T10:46:18.774Z,5.53
2019-01-17T10:47:28.895Z,5.58
2019-01-17T10:48:39.006Z,5.86
2019-01-17T10:49:49.155Z,6.19
2019-01-17T10:50:59.273Z,6.48
2019-01-17T10:52:09.037Z,6.62
2019-01-17T10:53:19.163Z,7.08
2019-01-17T10:54:29.283Z,7.64
2019-01-17T10:55:39.144Z,8.12
2019-01-17T10:56:49.260Z,8.57
2019-01-17T10:57:59.119Z,9.08
2019-01-17T10:59:09.245Z,9.5
2019-01-17T11:00:19.372Z,10.05
2019-01-17T11:01:29.529Z,10.33
2019-01-17T11:02:39.657Z,10.83
2019-01-17T11:03:49.770Z,11.13
2019-01-17T11:04:59.908Z,11.57
2019-01-17T11:06:10.027Z,11.91
2019-01-17T11:07:20.146Z,12.08
2019-01-17T11:08:30.273Z,12.24
2019-01-17T11:10:55.780Z,12.66
2019-01-17T11:20:59.243Z,13.41
2019-01-17T11:22:09.351Z,13.38
2019-01-17T11:23:19.475Z,13.4
2019-01-17T11:24:29.602Z,13.48
2019-01-17T11:25:39.755Z,13.46
2019-01-17T11:26:49.892Z,13.61
2019-01-17T11:28:00.038Z,13.71
2019-01-17T11:29:10.170Z,13.89
2019-01-17T11:30:20.288Z,14.03
2019-01-17T11:31:30.419Z,14.03
2019-01-17T11:32:40.534Z,14.14
2019-01-17T11:33:50.660Z,14.14
2019-01-17T11:35:00.831Z,14.18
2019-01-17T11:36:11.012Z,14.16
2019-01-17T11:37:21.181Z,14.13
2019-01-17T11:38:31.320Z,14.19
2019-01-17T11:39:41.451Z,14.24
2019-01-17T11:40:51.336Z,14.11
2019-01-17T11:42:01.463Z,14.18
2019-01-17T11:43:11.594Z,14.04
2019-01-17T11:44:21.722Z,13.86
2019-01-17T11:45:31.862Z,13.94
2019-01-17T11:46:41.993Z,14
2019-01-17T11:47:52.141Z,14.06
2019-01-17T11:49:02.258Z,14.1
2019-01-17T11:50:12.364Z,14.14
2019-01-17T11:51:22.491Z,13.81
2019-01-17T11:52:32.626Z,13.59
2019-01-17T11:53:42.758Z,13.58
2019-01-17T11:54:52.888Z,13.58
2019-01-17T11:56:03.042Z,13.71
2019-01-17T11:57:13.215Z,13.7
2019-01-17T11:58:23.362Z,13.73
2019-01-17T11:59:33.503Z,13.71
2019-01-17T12:00:43.743Z,13.77
2019-01-17T12:01:53.950Z,13.76
2019-01-17T12:03:04.203Z,13.69
2019-01-17T12:04:15.753Z,13.7
2019-01-17T12:05:25.904Z,13.61
2019-01-17T12:06:36.040Z,13.58
2019-01-17T12:07:46.231Z,13.52
2019-01-17T12:08:56.386Z,13.67
2019-01-17T12:10:06.538Z,13.61
2019-01-17T12:11:16.565Z,13.55
2019-01-17T12:12:26.711Z,13.55
2019-01-17T12:13:36.827Z,13.61
2019-01-17T12:14:46.938Z,13.7
2019-01-17T12:15:57.080Z,13.73
2019-01-17T12:17:07.393Z,13.64
2019-01-17T12:18:18.689Z,13.56
2019-01-17T12:19:28.814Z,13.38
2019-01-17T12:20:39.022Z,13.06
2019-01-17T12:21:48.908Z,12.71
2019-01-17T12:22:59.032Z,12.35
2019-01-17T12:24:09.145Z,12.09
2019-01-17T12:25:19.271Z,11.86
2019-01-17T12:26:29.400Z,11.46
2019-01-17T12:27:45.030Z,11.39
2019-01-17T12:28:55.143Z,11.17
2019-01-17T12:30:05.252Z,10.85
2019-01-17T12:31:15.411Z,10.65
2019-01-17T12:32:25.549Z,10.45
2019-01-17T12:33:35.680Z,10.15
2019-01-17T12:34:45.830Z,9.84
2019-01-17T12:35:55.989Z,9.65
2019-01-17T12:37:06.135Z,9.41
2019-01-17T12:38:16.293Z,9.25
2019-01-17T12:39:26.284Z,9.23
2019-01-17T12:40:36.414Z,9.11
2019-01-17T12:41:46.589Z,8.93
2019-01-17T12:42:56.734Z,8.98
2019-01-17T12:44:06.870Z,8.93
2019-01-17T12:45:16.999Z,8.75
2019-01-17T12:46:27.141Z,8.68
2019-01-17T12:47:37.258Z,8.53
2019-01-17T12:48:47.384Z,8.43
2019-01-17T12:49:57.509Z,8.25
2019-01-17T12:51:07.690Z,8.17
2019-01-17T12:52:17.814Z,8.28
2019-01-17T12:53:27.953Z,8.24
2019-01-17T12:54:38.067Z,8.27
2019-01-17T12:55:48.163Z,8.23
2019-01-17T12:56:59.107Z,8.16
2019-01-17T12:58:09.221Z,8.15
2019-01-17T12:59:19.380Z,8.17
2019-01-17T13:00:29.513Z,8.09
2019-01-17T13:01:39.650Z,8.06
2019-01-17T13:02:49.777Z,8.03
2019-01-17T13:03:59.889Z,7.98
2019-01-17T13:05:10.002Z,7.95
2019-01-17T13:06:20.120Z,7.85
2019-01-17T13:07:31.227Z,7.87
2019-01-17T13:08:41.344Z,7.74
2019-01-17T13:09:51.465Z,7.7
2019-01-17T13:11:01.586Z,7.74
2019-01-17T13:12:11.729Z,7.48
2019-01-17T13:13:21.866Z,7.43
2019-01-17T13:14:32.005Z,7.48
2019-01-17T13:15:42.153Z,7.34
2019-01-17T13:16:52.300Z,7.22
2019-01-17T13:18:02.442Z,7.24
2019-01-17T13:19:12.578Z,7.21
2019-01-17T13:20:22.705Z,7.17
2019-01-17T13:21:32.835Z,7.06
2019-01-17T13:22:42.961Z,7.02
2019-01-17T13:23:52.876Z,7.05
2019-01-17T13:25:04.141Z,7
2019-01-17T13:26:14.326Z,7.02
2019-01-17T13:27:24.466Z,7.02
2019-01-17T13:28:34.612Z,7.02
2019-01-17T13:29:44.726Z,7.05
2019-01-17T13:30:54.868Z,7.06
2019-01-17T13:32:05.000Z,7.03
2019-01-17T13:33:15.132Z,6.92
2019-01-17T13:34:26.429Z,6.87
2019-01-17T13:35:36.603Z,6.82
2019-01-17T13:36:46.720Z,6.87
2019-01-17T13:37:56.847Z,6.85
2019-01-17T13:39:06.976Z,6.89
2019-01-17T13:40:17.130Z,6.95
2019-01-17T13:41:27.245Z,6.93
2019-01-17T13:42:37.579Z,6.9
2019-01-17T13:43:47.700Z,6.93
2019-01-17T13:44:57.828Z,6.97
2019-01-17T13:46:07.973Z,6.95
2019-01-17T13:47:18.087Z,6.93
2019-01-17T13:48:28.211Z,6.9
2019-01-17T13:49:38.336Z,6.95
2019-01-17T13:50:48.546Z,6.92
2019-01-17T13:51:58.691Z,6.93
2019-01-17T13:53:08.820Z,6.9
2019-01-17T13:54:18.935Z,6.95
2019-01-17T13:55:29.044Z,6.97
2019-01-17T13:56:39.190Z,6.9
2019-01-17T13:57:49.316Z,6.9
2019-01-17T13:58:59.441Z,6.93
2019-01-17T14:00:09.572Z,6.85
2019-01-17T14:01:19.711Z,6.9
2019-01-17T14:02:29.900Z,6.9
2019-01-17T14:03:40.049Z,6.96
2019-01-17T14:04:50.159Z,6.93
2019-01-17T14:06:01.169Z,6.9
2019-01-17T14:07:11.310Z,6.89
2019-01-17T14:08:21.649Z,6.92
2019-01-17T14:09:31.792Z,6.81
2019-01-17T14:10:41.937Z,6.81
2019-01-17T14:11:52.076Z,6.74
2019-01-17T14:13:02.260Z,6.81
2019-01-17T14:14:12.380Z,6.81
2019-01-17T14:15:22.511Z,6.81
2019-01-17T14:16:32.804Z,6.81
2019-01-17T14:17:42.928Z,6.85
2019-01-17T14:18:53.074Z,6.79
2019-01-17T14:20:03.225Z,6.82
2019-01-17T14:21:13.350Z,6.74
2019-01-17T14:22:23.494Z,6.84
2019-01-17T14:23:33.666Z,6.74
2019-01-17T14:24:43.774Z,6.74
2019-01-17T14:25:53.897Z,6.75
2019-01-17T14:27:04.466Z,6.66
2019-01-17T14:28:19.455Z,6.56
2019-01-17T14:29:29.589Z,6.66
2019-01-17T14:30:39.731Z,6.52
2019-01-17T14:31:49.892Z,6.6
2019-01-17T14:33:00.003Z,6.63
2019-01-17T14:34:10.150Z,6.52
2019-01-17T14:35:20.289Z,6.53
2019-01-17T14:36:30.417Z,6.45
2019-01-17T14:37:40.565Z,6.48
2019-01-17T14:38:50.697Z,6.39
2019-01-17T14:40:00.859Z,6.54
2019-01-17T14:41:11.005Z,6.45
2019-01-17T14:42:20.879Z,6.49
2019-01-17T14:43:31.019Z,6.49
2019-01-17T14:44:41.185Z,6.39
2019-01-17T14:45:51.317Z,6.38
2019-01-17T14:47:01.451Z,6.31
2019-01-17T14:48:11.597Z,6.3
2019-01-17T14:49:21.740Z,6.26
2019-01-17T14:50:31.900Z,6.34
2019-01-17T14:51:42.063Z,6.27
2019-01-17T14:52:52.203Z,6.28
2019-01-17T14:54:02.325Z,6.44
2019-01-17T14:55:12.453Z,6.44
2019-01-17T14:56:22.615Z,6.49
2019-01-17T14:57:32.734Z,6.46
2019-01-17T14:58:42.599Z,6.57
2019-01-17T14:59:52.737Z,6.41
2019-01-17T15:01:02.867Z,6.52
2019-01-17T15:02:13.014Z,6.42
2019-01-17T15:03:23.297Z,6.48
2019-01-17T15:04:33.487Z,6.46
2019-01-17T15:05:43.659Z,6.24
2019-01-17T15:06:53.804Z,6.31
2019-01-17T15:08:03.941Z,6.14
2019-01-17T15:09:14.128Z,6.12
2019-01-17T15:10:24.273Z,6.09
2019-01-17T15:11:34.428Z,6.05
2019-01-17T15:12:44.535Z,6.03
2019-01-17T15:13:54.658Z,5.88
2019-01-17T15:15:04.803Z,5.91
2019-01-17T15:16:14.939Z,5.8
2019-01-17T15:17:25.050Z,5.69
2019-01-17T15:18:35.165Z,5.67
2019-01-17T15:19:45.319Z,5.46
2019-01-17T15:20:55.470Z,5.46
2019-01-17T15:22:05.603Z,5.21
2019-01-17T15:23:15.768Z,5.16
2019-01-17T15:24:25.895Z,4.98
2019-01-17T15:25:36.042Z,4.85
2019-01-17T15:26:46.197Z,4.63
2019-01-17T15:27:56.083Z,4.56
2019-01-17T15:29:06.226Z,4.4
2019-01-17T15:30:16.411Z,4.37
2019-01-17T15:31:26.549Z,4.34
2019-01-17T15:32:36.893Z,4.2
2019-01-17T15:33:47.008Z,4.22
2019-01-17T15:34:57.144Z,4.11
2019-01-17T15:36:07.460Z,4.12
2019-01-17T15:37:19.619Z,4.05
2019-01-17T15:38:29.971Z,4.03
2019-01-17T15:39:40.123Z,4.03
2019-01-17T15:40:50.269Z,3.98
2019-01-17T15:42:00.444Z,3.91
2019-01-17T15:43:10.637Z,3.94
2019-01-17T15:44:20.777Z,3.85
2019-01-17T15:45:30.965Z,3.8
2019-01-17T15:49:12.356Z,3.75